sensor_id;sensor_type;location;lat;lon;timestamp;pressure;altitude;pressure_sealevel;temperature;humidity
10652;BME280;5374;42.742;23.266;2023-05-29T00:00:28;95187.25;;;14.80;100.00
10652;BME280;5374;42.742;23.266;2023-05-29T00:03:17;95211.28;;;14.85;100.00
10652;BME280;5374;42.742;23.266;2023-05-29T00:06:05;95224.59;;;14.90;100.00
10652;BME280;5374;42.742;23.266;2023-05-29T00:08:54;95209.69;;;14.84;100.00
10652;BME280;5374;42.742;23.266;2023-05-29T00:11:41;95219.09;;;14.76;100.00
10652;BME280;5374;42.742;23.266;2023-05-29T00:14:28;95202.69;;;14.59;100.00
10652;BME280;5374;42.742;23.266;2023-05-29T00:17:15;95200.09;;;14.49;100.00
10652;BME280;5374;42.742;23.266;2023-05-29T00:20:03;95225.41;;;14.56;100.00
10652;BME280;5374;42.742;23.266;2023-05-29T00:22:56;95196.16;;;14.41;100.00
10652;BME280;5374;42.742;23.266;2023-05-29T00:25:45;95224.06;;;14.59;100.00
10652;BME280;5374;42.742;23.266;2023-05-29T00:28:32;95218.19;;;14.57;100.00
10652;BME280;5374;42.742;23.266;2023-05-29T00:31:19;95185.22;;;14.32;100.00
10652;BME280;5374;42.742;23.266;2023-05-29T00:34:06;95213.41;;;14.54;100.00
10652;BME280;5374;42.742;23.266;2023-05-29T00:36:53;95213.94;;;14.56;100.00
10652;BME280;5374;42.742;23.266;2023-05-29T00:39:41;95215.53;;;14.57;100.00
10652;BME280;5374;42.742;23.266;2023-05-29T00:42:30;95199.56;;;14.47;100.00
10652;BME280;5374;42.742;23.266;2023-05-29T00:45:17;95183.59;;;14.36;100.00
10652;BME280;5374;42.742;23.266;2023-05-29T00:48:04;95205.41;;;14.49;100.00
10652;BME280;5374;42.742;23.266;2023-05-29T00:50:52;95211.84;;;14.48;100.00
10652;BME280;5374;42.742;23.266;2023-05-29T00:53:40;95200.19;;;14.33;100.00
10652;BME280;5374;42.742;23.266;2023-05-29T00:56:27;95208.69;;;14.46;100.00
10652;BME280;5374;42.742;23.266;2023-05-29T00:59:16;95181.59;;;14.18;100.00
10652;BME280;5374;42.742;23.266;2023-05-29T01:02:05;95207.16;;;14.29;100.00
10652;BME280;5374;42.742;23.266;2023-05-29T01:04:52;95205.53;;;14.33;100.00
10652;BME280;5374;42.742;23.266;2023-05-29T01:07:40;95196.97;;;14.31;100.00
10652;BME280;5374;42.742;23.266;2023-05-29T01:10:27;95199.41;;;14.28;100.00
10652;BME280;5374;42.742;23.266;2023-05-29T01:13:18;95209.84;;;14.24;100.00
10652;BME280;5374;42.742;23.266;2023-05-29T01:16:12;95188.09;;;14.02;100.00
10652;BME280;5374;42.742;23.266;2023-05-29T01:19:13;95188.41;;;14.00;100.00
10652;BME280;5374;42.742;23.266;2023-05-29T01:22:12;95176.97;;;13.95;100.00
10652;BME280;5374;42.742;23.266;2023-05-29T01:25:09;95219.03;;;14.08;100.00
10652;BME280;5374;42.742;23.266;2023-05-29T01:28:02;95221.19;;;14.06;100.00
10652;BME280;5374;42.742;23.266;2023-05-29T01:30:51;95218.25;;;14.02;100.00
10652;BME280;5374;42.742;23.266;2023-05-29T01:33:40;95215.41;;;13.94;100.00
10652;BME280;5374;42.742;23.266;2023-05-29T01:36:28;95211.13;;;13.93;100.00
10652;BME280;5374;42.742;23.266;2023-05-29T01:39:17;95150.72;;;13.58;100.00
10652;BME280;5374;42.742;23.266;2023-05-29T01:42:06;95201.53;;;13.92;100.00
10652;BME280;5374;42.742;23.266;2023-05-29T01:44:56;95220.13;;;14.02;100.00
10652;BME280;5374;42.742;23.266;2023-05-29T01:47:44;95111.63;;;13.43;100.00
10652;BME280;5374;42.742;23.266;2023-05-29T01:50:31;95194.31;;;13.92;100.00
10652;BME280;5374;42.742;23.266;2023-05-29T01:53:18;95200.66;;;14.01;100.00
10652;BME280;5374;42.742;23.266;2023-05-29T01:56:06;95191.84;;;14.01;100.00
10652;BME280;5374;42.742;23.266;2023-05-29T01:58:54;95190.31;;;13.95;100.00
10652;BME280;5374;42.742;23.266;2023-05-29T02:01:43;95194.56;;;13.96;100.00
10652;BME280;5374;42.742;23.266;2023-05-29T02:04:30;95203.63;;;14.00;100.00
10652;BME280;5374;42.742;23.266;2023-05-29T02:07:18;95196.97;;;13.97;100.00
10652;BME280;5374;42.742;23.266;2023-05-29T02:10:08;95204.19;;;13.97;100.00
10652;BME280;5374;42.742;23.266;2023-05-29T02:12:55;95191.41;;;13.89;100.00
10652;BME280;5374;42.742;23.266;2023-05-29T02:15:43;95202.31;;;13.92;100.00
10652;BME280;5374;42.742;23.266;2023-05-29T02:18:32;95139.25;;;13.57;100.00
10652;BME280;5374;42.742;23.266;2023-05-29T02:21:21;95184.47;;;13.88;100.00
10652;BME280;5374;42.742;23.266;2023-05-29T02:24:08;95194.06;;;13.89;100.00
10652;BME280;5374;42.742;23.266;2023-05-29T02:26:56;95202.59;;;13.96;100.00
10652;BME280;5374;42.742;23.266;2023-05-29T02:29:43;95172.81;;;13.74;100.00
10652;BME280;5374;42.742;23.266;2023-05-29T02:32:30;95194.88;;;13.89;100.00
10652;BME280;5374;42.742;23.266;2023-05-29T02:35:19;95204.75;;;13.89;100.00
10652;BME280;5374;42.742;23.266;2023-05-29T02:38:08;95205.28;;;13.86;100.00
10652;BME280;5374;42.742;23.266;2023-05-29T02:40:55;95199.97;;;13.81;100.00
10652;BME280;5374;42.742;23.266;2023-05-29T02:43:42;95200.56;;;13.73;100.00
10652;BME280;5374;42.742;23.266;2023-05-29T02:46:29;95196.59;;;13.70;100.00
10652;BME280;5374;42.742;23.266;2023-05-29T02:49:16;95209.91;;;13.75;100.00
10652;BME280;5374;42.742;23.266;2023-05-29T02:52:05;95201.38;;;13.73;100.00
10652;BME280;5374;42.742;23.266;2023-05-29T02:54:53;95174.97;;;13.66;100.00
10652;BME280;5374;42.742;23.266;2023-05-29T02:57:41;95205.81;;;13.88;100.00
10652;BME280;5374;42.742;23.266;2023-05-29T03:00:29;95197.81;;;13.88;100.00
10652;BME280;5374;42.742;23.266;2023-05-29T03:03:16;95191.94;;;13.86;100.00
10652;BME280;5374;42.742;23.266;2023-05-29T03:06:03;95197.75;;;13.98;100.00
10652;BME280;5374;42.742;23.266;2023-05-29T03:08:52;95198.50;;;14.03;100.00
10652;BME280;5374;42.742;23.266;2023-05-29T03:11:39;95175.38;;;13.89;100.00
10652;BME280;5374;42.742;23.266;2023-05-29T03:14:26;95203.28;;;14.12;100.00
10652;BME280;5374;42.742;23.266;2023-05-29T03:17:14;95204.06;;;14.12;100.00
10652;BME280;5374;42.742;23.266;2023-05-29T03:20:01;95175.91;;;13.91;100.00
10652;BME280;5374;42.742;23.266;2023-05-29T03:22:51;95209.19;;;14.03;100.00
10652;BME280;5374;42.742;23.266;2023-05-29T03:25:40;95222.25;;;14.10;100.00
10652;BME280;5374;42.742;23.266;2023-05-29T03:28:27;95221.69;;;14.13;100.00
10652;BME280;5374;42.742;23.266;2023-05-29T03:31:14;95219.25;;;14.22;100.00
10652;BME280;5374;42.742;23.266;2023-05-29T03:34:01;95221.59;;;14.23;100.00
10652;BME280;5374;42.742;23.266;2023-05-29T03:36:48;95225.41;;;14.17;100.00
10652;BME280;5374;42.742;23.266;2023-05-29T03:39:35;95231.75;;;14.26;100.00
10652;BME280;5374;42.742;23.266;2023-05-29T03:42:24;95234.13;;;14.28;100.00
10652;BME280;5374;42.742;23.266;2023-05-29T03:45:11;95237.56;;;14.33;100.00
10652;BME280;5374;42.742;23.266;2023-05-29T03:47:58;95247.97;;;14.35;100.00
10652;BME280;5374;42.742;23.266;2023-05-29T03:50:46;95240.78;;;14.35;100.00
10652;BME280;5374;42.742;23.266;2023-05-29T03:53:33;95221.59;;;14.23;100.00
10652;BME280;5374;42.742;23.266;2023-05-29T03:56:20;95225.03;;;14.29;100.00
10652;BME280;5374;42.742;23.266;2023-05-29T03:59:09;95252.69;;;14.53;100.00
10652;BME280;5374;42.742;23.266;2023-05-29T04:01:56;95226.34;;;14.42;100.00
10652;BME280;5374;42.742;23.266;2023-05-29T04:04:43;95263.06;;;14.60;100.00
10652;BME280;5374;42.742;23.266;2023-05-29T04:07:30;95268.66;;;14.63;100.00
10652;BME280;5374;42.742;23.266;2023-05-29T04:10:17;95234.34;;;14.42;100.00
10652;BME280;5374;42.742;23.266;2023-05-29T04:13:04;95268.91;;;14.67;100.00
10652;BME280;5374;42.742;23.266;2023-05-29T04:15:54;95279.59;;;14.67;100.00
10652;BME280;5374;42.742;23.266;2023-05-29T04:18:42;95279.59;;;14.67;100.00
10652;BME280;5374;42.742;23.266;2023-05-29T04:21:29;95263.56;;;14.67;100.00
10652;BME280;5374;42.742;23.266;2023-05-29T04:24:18;95249.19;;;14.58;100.00
10652;BME280;5374;42.742;23.266;2023-05-29T04:27:05;95270.97;;;14.75;100.00
10652;BME280;5374;42.742;23.266;2023-05-29T04:29:52;95265.63;;;14.75;100.00
10652;BME280;5374;42.742;23.266;2023-05-29T04:32:43;95250.41;;;14.70;100.00
10652;BME280;5374;42.742;23.266;2023-05-29T04:35:30;95247.97;;;14.74;100.00
10652;BME280;5374;42.742;23.266;2023-05-29T04:38:17;95257.50;;;14.90;100.00
10652;BME280;5374;42.742;23.266;2023-05-29T04:41:10;95256.44;;;14.86;100.00
10652;BME280;5374;42.742;23.266;2023-05-29T04:43:58;95255.94;;;14.84;100.00
10652;BME280;5374;42.742;23.266;2023-05-29T04:46:45;95240.69;;;14.85;100.00
10652;BME280;5374;42.742;23.266;2023-05-29T04:49:34;95259.00;;;14.96;100.00
10652;BME280;5374;42.742;23.266;2023-05-29T04:52:21;95267.38;;;14.90;100.00
10652;BME280;5374;42.742;23.266;2023-05-29T04:55:09;95259.84;;;14.92;100.00
10652;BME280;5374;42.742;23.266;2023-05-29T04:57:57;95242.56;;;14.84;100.00
10652;BME280;5374;42.742;23.266;2023-05-29T05:00:44;95300.53;;;15.18;100.00
10652;BME280;5374;42.742;23.266;2023-05-29T05:03:33;95250.47;;;14.94;100.00
10652;BME280;5374;42.742;23.266;2023-05-29T05:06:22;95296.97;;;15.27;100.00
10652;BME280;5374;42.742;23.266;2023-05-29T05:09:11;95308.44;;;15.33;100.00
10652;BME280;5374;42.742;23.266;2023-05-29T05:11:58;95301.13;;;15.38;100.00
10652;BME280;5374;42.742;23.266;2023-05-29T05:14:46;95312.91;;;15.37;100.00
10652;BME280;5374;42.742;23.266;2023-05-29T05:17:33;95316.06;;;15.45;100.00
10652;BME280;5374;42.742;23.266;2023-05-29T05:20:20;95314.94;;;15.51;100.00
10652;BME280;5374;42.742;23.266;2023-05-29T05:23:12;95328.84;;;15.53;100.00
10652;BME280;5374;42.742;23.266;2023-05-29T05:25:59;95233.75;;;15.13;100.00
10652;BME280;5374;42.742;23.266;2023-05-29T05:28:46;95317.38;;;15.76;100.00
10652;BME280;5374;42.742;23.266;2023-05-29T05:31:33;95315.00;;;15.75;100.00
10652;BME280;5374;42.742;23.266;2023-05-29T05:34:20;95319.66;;;15.88;100.00
10652;BME280;5374;42.742;23.266;2023-05-29T05:37:07;95318.47;;;15.99;100.00
10652;BME280;5374;42.742;23.266;2023-05-29T05:39:57;95319.84;;;15.96;100.00
10652;BME280;5374;42.742;23.266;2023-05-29T05:42:46;95247.19;;;15.55;100.00
10652;BME280;5374;42.742;23.266;2023-05-29T05:45:33;95285.88;;;15.92;100.00
10652;BME280;5374;42.742;23.266;2023-05-29T05:48:21;95310.22;;;16.14;100.00
10652;BME280;5374;42.742;23.266;2023-05-29T05:51:08;95290.56;;;16.24;100.00
10652;BME280;5374;42.742;23.266;2023-05-29T05:53:56;95314.69;;;16.61;100.00
10652;BME280;5374;42.742;23.266;2023-05-29T05:56:45;95317.63;;;16.97;100.00
10652;BME280;5374;42.742;23.266;2023-05-29T05:59:32;95324.75;;;17.39;100.00
10652;BME280;5374;42.742;23.266;2023-05-29T06:02:19;95288.41;;;17.74;100.00
10652;BME280;5374;42.742;23.266;2023-05-29T06:05:07;95319.34;;;18.76;100.00
10652;BME280;5374;42.742;23.266;2023-05-29T06:07:55;95324.81;;;19.30;100.00
10652;BME280;5374;42.742;23.266;2023-05-29T06:10:42;95282.09;;;20.16;100.00
10652;BME280;5374;42.742;23.266;2023-05-29T06:13:30;95321.41;;;21.34;100.00
10652;BME280;5374;42.742;23.266;2023-05-29T06:16:18;95299.97;;;21.29;89.49
10652;BME280;5374;42.742;23.266;2023-05-29T06:19:05;95321.59;;;21.21;85.67
10652;BME280;5374;42.742;23.266;2023-05-29T06:21:53;95320.28;;;21.09;84.48
10652;BME280;5374;42.742;23.266;2023-05-29T06:24:40;95330.13;;;21.05;83.27
10652;BME280;5374;42.742;23.266;2023-05-29T06:27:27;95339.84;;;20.98;82.89
10652;BME280;5374;42.742;23.266;2023-05-29T06:30:16;95336.34;;;20.97;80.92
10652;BME280;5374;42.742;23.266;2023-05-29T06:33:03;95338.88;;;21.02;81.76
10652;BME280;5374;42.742;23.266;2023-05-29T06:35:51;95326.78;;;21.52;81.54
10652;BME280;5374;42.742;23.266;2023-05-29T06:38:38;95319.13;;;22.38;77.31
10652;BME280;5374;42.742;23.266;2023-05-29T06:41:25;95328.75;;;23.40;70.46
10652;BME280;5374;42.742;23.266;2023-05-29T06:44:13;95317.59;;;23.86;66.21
10652;BME280;5374;42.742;23.266;2023-05-29T06:47:01;95323.72;;;24.08;65.99
10652;BME280;5374;42.742;23.266;2023-05-29T06:49:48;95326.34;;;24.53;64.26
10652;BME280;5374;42.742;23.266;2023-05-29T06:52:35;95322.03;;;25.29;61.06
10652;BME280;5374;42.742;23.266;2023-05-29T06:55:22;95303.72;;;25.69;60.49
10652;BME280;5374;42.742;23.266;2023-05-29T06:58:10;95314.06;;;25.79;58.68
10652;BME280;5374;42.742;23.266;2023-05-29T07:01:00;95286.00;;;25.47;58.23
10652;BME280;5374;42.742;23.266;2023-05-29T07:03:57;95307.59;;;25.56;59.14
10652;BME280;5374;42.742;23.266;2023-05-29T07:06:45;95307.13;;;26.29;56.70
10652;BME280;5374;42.742;23.266;2023-05-29T07:09:33;95320.06;;;26.83;53.58
10652;BME280;5374;42.742;23.266;2023-05-29T07:12:21;95317.56;;;27.29;53.77
10652;BME280;5374;42.742;23.266;2023-05-29T07:15:09;95308.81;;;27.81;49.97
10652;BME280;5374;42.742;23.266;2023-05-29T07:17:56;95321.81;;;28.10;46.76
10652;BME280;5374;42.742;23.266;2023-05-29T07:20:45;95322.59;;;28.11;49.22
10652;BME280;5374;42.742;23.266;2023-05-29T07:23:33;95307.06;;;28.38;48.02
10652;BME280;5374;42.742;23.266;2023-05-29T07:26:20;95323.44;;;28.61;46.35
10652;BME280;5374;42.742;23.266;2023-05-29T07:29:09;95316.47;;;28.93;45.08
10652;BME280;5374;42.742;23.266;2023-05-29T07:31:57;95316.72;;;29.41;45.25
10652;BME280;5374;42.742;23.266;2023-05-29T07:34:44;95327.75;;;29.18;43.42
10652;BME280;5374;42.742;23.266;2023-05-29T07:37:34;95327.41;;;28.17;46.26
10652;BME280;5374;42.742;23.266;2023-05-29T07:40:21;95319.38;;;28.05;47.87
10652;BME280;5374;42.742;23.266;2023-05-29T07:43:08;95323.81;;;28.36;46.32
10652;BME280;5374;42.742;23.266;2023-05-29T07:45:55;95323.88;;;28.92;46.00
10652;BME280;5374;42.742;23.266;2023-05-29T07:48:42;95327.72;;;28.35;44.61
10652;BME280;5374;42.742;23.266;2023-05-29T07:51:31;95318.91;;;27.77;45.04
10652;BME280;5374;42.742;23.266;2023-05-29T07:54:21;95319.41;;;27.63;46.30
10652;BME280;5374;42.742;23.266;2023-05-29T07:57:08;95319.81;;;28.07;44.25
10652;BME280;5374;42.742;23.266;2023-05-29T07:59:56;95326.19;;;28.15;43.71
10652;BME280;5374;42.742;23.266;2023-05-29T08:02:43;95300.50;;;28.42;43.79
10652;BME280;5374;42.742;23.266;2023-05-29T08:05:30;95311.91;;;29.01;42.86
10652;BME280;5374;42.742;23.266;2023-05-29T08:08:18;95298.69;;;28.27;43.85
10652;BME280;5374;42.742;23.266;2023-05-29T08:11:07;95321.38;;;27.85;43.94
10652;BME280;5374;42.742;23.266;2023-05-29T08:13:54;95308.34;;;27.17;45.67
10652;BME280;5374;42.742;23.266;2023-05-29T08:16:41;95303.16;;;26.93;47.19
10652;BME280;5374;42.742;23.266;2023-05-29T08:19:28;95311.16;;;27.40;45.97
10652;BME280;5374;42.742;23.266;2023-05-29T08:22:16;95314.38;;;27.46;44.68
10652;BME280;5374;42.742;23.266;2023-05-29T08:25:03;95320.56;;;26.53;47.16
10652;BME280;5374;42.742;23.266;2023-05-29T08:27:52;95317.34;;;26.32;47.71
10652;BME280;5374;42.742;23.266;2023-05-29T08:30:39;95315.13;;;26.22;48.03
10652;BME280;5374;42.742;23.266;2023-05-29T08:33:26;95323.31;;;26.06;48.67
10652;BME280;5374;42.742;23.266;2023-05-29T08:36:14;95325.69;;;25.92;48.17
10652;BME280;5374;42.742;23.266;2023-05-29T08:39:03;95313.56;;;25.89;48.57
10652;BME280;5374;42.742;23.266;2023-05-29T08:41:55;95322.25;;;26.11;47.79
10652;BME280;5374;42.742;23.266;2023-05-29T08:44:48;95313.09;;;25.72;47.46
10652;BME280;5374;42.742;23.266;2023-05-29T08:47:36;95310.94;;;25.21;48.24
10652;BME280;5374;42.742;23.266;2023-05-29T08:50:26;95303.00;;;25.29;49.53
10652;BME280;5374;42.742;23.266;2023-05-29T08:53:14;95304.66;;;25.33;49.19
10652;BME280;5374;42.742;23.266;2023-05-29T08:56:02;95297.56;;;25.29;47.09
10652;BME280;5374;42.742;23.266;2023-05-29T08:58:50;95301.00;;;25.13;46.67
10652;BME280;5374;42.742;23.266;2023-05-29T09:01:39;95295.31;;;24.78;48.56
10652;BME280;5374;42.742;23.266;2023-05-29T09:04:28;95293.34;;;25.03;46.81
10652;BME280;5374;42.742;23.266;2023-05-29T09:07:16;95294.97;;;25.20;47.07
10652;BME280;5374;42.742;23.266;2023-05-29T09:10:05;95288.69;;;25.32;48.03
10652;BME280;5374;42.742;23.266;2023-05-29T09:12:52;95281.94;;;25.26;45.64
10652;BME280;5374;42.742;23.266;2023-05-29T09:15:43;95289.94;;;24.94;45.80
10652;BME280;5374;42.742;23.266;2023-05-29T09:18:32;95287.84;;;24.63;46.30
10652;BME280;5374;42.742;23.266;2023-05-29T09:21:26;95289.94;;;24.42;46.94
10652;BME280;5374;42.742;23.266;2023-05-29T09:24:14;95279.84;;;24.54;46.14
10652;BME280;5374;42.742;23.266;2023-05-29T09:27:01;95260.97;;;24.98;46.19
10652;BME280;5374;42.742;23.266;2023-05-29T09:29:49;95267.66;;;25.29;45.41
10652;BME280;5374;42.742;23.266;2023-05-29T09:32:37;95263.41;;;25.15;44.19
10652;BME280;5374;42.742;23.266;2023-05-29T09:35:25;95259.06;;;25.27;44.78
10652;BME280;5374;42.742;23.266;2023-05-29T09:38:14;95246.16;;;25.24;44.50
10652;BME280;5374;42.742;23.266;2023-05-29T09:41:03;95253.09;;;25.37;45.44
10652;BME280;5374;42.742;23.266;2023-05-29T09:43:51;95250.75;;;25.51;45.11
10652;BME280;5374;42.742;23.266;2023-05-29T09:46:39;95250.31;;;25.49;44.06
10652;BME280;5374;42.742;23.266;2023-05-29T09:49:26;95243.31;;;25.79;43.66
10652;BME280;5374;42.742;23.266;2023-05-29T09:52:20;95232.97;;;25.85;43.30
10652;BME280;5374;42.742;23.266;2023-05-29T09:55:08;95250.63;;;25.91;42.08
10652;BME280;5374;42.742;23.266;2023-05-29T09:57:57;95256.66;;;26.16;42.56
10652;BME280;5374;42.742;23.266;2023-05-29T10:00:45;95240.97;;;25.78;42.74
10652;BME280;5374;42.742;23.266;2023-05-29T10:03:33;95220.91;;;25.39;43.81
10652;BME280;5374;42.742;23.266;2023-05-29T10:06:21;95228.16;;;25.63;44.12
10652;BME280;5374;42.742;23.266;2023-05-29T10:09:12;95237.44;;;25.77;44.71
10652;BME280;5374;42.742;23.266;2023-05-29T10:12:00;95232.31;;;26.23;44.66
10652;BME280;5374;42.742;23.266;2023-05-29T10:14:52;95226.47;;;26.05;42.30
10652;BME280;5374;42.742;23.266;2023-05-29T10:17:46;95228.88;;;26.26;42.46
10652;BME280;5374;42.742;23.266;2023-05-29T10:20:36;95230.09;;;26.29;41.12
10652;BME280;5374;42.742;23.266;2023-05-29T10:23:25;95232.66;;;26.21;42.55
10652;BME280;5374;42.742;23.266;2023-05-29T10:26:18;95231.31;;;25.80;43.19
10652;BME280;5374;42.742;23.266;2023-05-29T10:29:12;95224.63;;;25.62;42.90
10652;BME280;5374;42.742;23.266;2023-05-29T10:32:18;95213.25;;;25.72;43.47
10652;BME280;5374;42.742;23.266;2023-05-29T10:35:10;95227.41;;;26.13;43.65
10652;BME280;5374;42.742;23.266;2023-05-29T10:38:02;95219.19;;;26.44;43.47
10652;BME280;5374;42.742;23.266;2023-05-29T10:40:56;95224.22;;;26.42;42.69
10652;BME280;5374;42.742;23.266;2023-05-29T10:44:39;95224.25;;;26.11;41.10
10652;BME280;5374;42.742;23.266;2023-05-29T10:47:28;95221.66;;;25.83;42.92
10652;BME280;5374;42.742;23.266;2023-05-29T10:50:35;95215.69;;;25.77;42.77
10652;BME280;5374;42.742;23.266;2023-05-29T10:53:23;95198.38;;;26.01;39.86
10652;BME280;5374;42.742;23.266;2023-05-29T10:56:15;95206.31;;;26.26;40.76
10652;BME280;5374;42.742;23.266;2023-05-29T10:59:08;95203.03;;;26.01;39.24
10652;BME280;5374;42.742;23.266;2023-05-29T11:01:55;95189.59;;;26.08;40.55
10652;BME280;5374;42.742;23.266;2023-05-29T11:04:44;95196.44;;;26.52;38.89
10652;BME280;5374;42.742;23.266;2023-05-29T11:07:33;95182.38;;;26.50;40.00
10652;BME280;5374;42.742;23.266;2023-05-29T11:10:43;95187.09;;;26.53;41.41
10652;BME280;5374;42.742;23.266;2023-05-29T11:13:33;95184.47;;;26.57;40.92
10652;BME280;5374;42.742;23.266;2023-05-29T11:16:37;95186.56;;;26.64;38.25
10652;BME280;5374;42.742;23.266;2023-05-29T11:19:25;95178.66;;;26.39;39.87
10652;BME280;5374;42.742;23.266;2023-05-29T11:22:20;95178.72;;;26.27;39.67
10652;BME280;5374;42.742;23.266;2023-05-29T11:25:10;95171.00;;;26.29;38.84
10652;BME280;5374;42.742;23.266;2023-05-29T11:28:00;95170.03;;;26.37;39.24
10652;BME280;5374;42.742;23.266;2023-05-29T11:30:49;95165.81;;;26.40;38.32
10652;BME280;5374;42.742;23.266;2023-05-29T11:33:40;95175.41;;;26.53;39.45
10652;BME280;5374;42.742;23.266;2023-05-29T11:36:28;95128.84;;;26.23;40.64
10652;BME280;5374;42.742;23.266;2023-05-29T11:39:16;95185.09;;;26.50;40.98
10652;BME280;5374;42.742;23.266;2023-05-29T11:42:03;95171.84;;;26.68;38.13
10652;BME280;5374;42.742;23.266;2023-05-29T11:44:52;95147.41;;;26.52;39.87
10652;BME280;5374;42.742;23.266;2023-05-29T11:47:52;95169.88;;;26.30;40.82
10652;BME280;5374;42.742;23.266;2023-05-29T11:50:41;95170.94;;;25.91;41.84
10652;BME280;5374;42.742;23.266;2023-05-29T11:53:29;95136.19;;;25.52;42.30
10652;BME280;5374;42.742;23.266;2023-05-29T11:56:16;95175.16;;;25.72;41.13
10652;BME280;5374;42.742;23.266;2023-05-29T11:59:03;95164.06;;;25.97;39.81
10652;BME280;5374;42.742;23.266;2023-05-29T12:01:53;95168.50;;;26.05;40.03
10652;BME280;5374;42.742;23.266;2023-05-29T12:04:41;95163.41;;;26.19;39.33
10652;BME280;5374;42.742;23.266;2023-05-29T12:07:30;95165.47;;;26.26;41.94
10652;BME280;5374;42.742;23.266;2023-05-29T12:10:18;95152.44;;;26.00;43.02
10652;BME280;5374;42.742;23.266;2023-05-29T12:13:06;95163.03;;;25.85;43.25
10652;BME280;5374;42.742;23.266;2023-05-29T12:15:54;95136.72;;;25.27;45.49
10652;BME280;5374;42.742;23.266;2023-05-29T12:18:44;95161.09;;;25.07;45.51
10652;BME280;5374;42.742;23.266;2023-05-29T12:21:31;95164.06;;;25.02;45.17
10652;BME280;5374;42.742;23.266;2023-05-29T12:24:20;95178.09;;;24.64;46.20
10652;BME280;5374;42.742;23.266;2023-05-29T12:27:09;95179.47;;;24.06;46.07
10652;BME280;5374;42.742;23.266;2023-05-29T12:30:00;95189.13;;;23.67;48.95
10652;BME280;5374;42.742;23.266;2023-05-29T12:32:48;95189.66;;;23.72;49.29
10652;BME280;5374;42.742;23.266;2023-05-29T12:35:36;95193.97;;;23.61;49.42
10652;BME280;5374;42.742;23.266;2023-05-29T12:38:24;95203.69;;;23.62;49.32
10652;BME280;5374;42.742;23.266;2023-05-29T12:41:28;95204.81;;;23.61;49.34
10652;BME280;5374;42.742;23.266;2023-05-29T12:44:18;95194.53;;;23.55;50.84
10652;BME280;5374;42.742;23.266;2023-05-29T12:47:06;95178.19;;;23.30;50.69
10652;BME280;5374;42.742;23.266;2023-05-29T12:49:53;95195.50;;;23.38;51.72
10652;BME280;5374;42.742;23.266;2023-05-29T12:52:41;95188.47;;;23.25;53.02
10652;BME280;5374;42.742;23.266;2023-05-29T12:55:30;95185.56;;;23.42;53.23
10652;BME280;5374;42.742;23.266;2023-05-29T12:58:20;95204.78;;;23.49;52.60
10652;BME280;5374;42.742;23.266;2023-05-29T13:01:12;95190.22;;;23.53;51.97
10652;BME280;5374;42.742;23.266;2023-05-29T13:04:00;95199.03;;;23.75;52.58
10652;BME280;5374;42.742;23.266;2023-05-29T13:06:47;95210.13;;;23.82;53.95
10652;BME280;5374;42.742;23.266;2023-05-29T13:09:34;95203.91;;;23.94;53.38
10652;BME280;5374;42.742;23.266;2023-05-29T13:12:21;95191.03;;;23.66;53.51
10652;BME280;5374;42.742;23.266;2023-05-29T13:15:11;95187.56;;;23.33;55.08
10652;BME280;5374;42.742;23.266;2023-05-29T13:17:59;95200.91;;;23.38;55.49
10652;BME280;5374;42.742;23.266;2023-05-29T13:20:46;95198.88;;;23.35;55.04
10652;BME280;5374;42.742;23.266;2023-05-29T13:23:33;95194.84;;;23.53;54.70
10652;BME280;5374;42.742;23.266;2023-05-29T13:26:20;95183.53;;;23.51;54.34
10652;BME280;5374;42.742;23.266;2023-05-29T13:29:08;95188.03;;;23.35;54.78
10652;BME280;5374;42.742;23.266;2023-05-29T13:31:56;95181.50;;;23.36;55.69
10652;BME280;5374;42.742;23.266;2023-05-29T13:34:43;95188.03;;;23.35;55.18
10652;BME280;5374;42.742;23.266;2023-05-29T13:37:31;95181.94;;;23.38;55.80
10652;BME280;5374;42.742;23.266;2023-05-29T13:40:18;95191.22;;;23.49;50.85
10652;BME280;5374;42.742;23.266;2023-05-29T13:43:05;95182.16;;;23.33;47.53
10652;BME280;5374;42.742;23.266;2023-05-29T13:45:52;95177.25;;;23.02;47.29
10652;BME280;5374;42.742;23.266;2023-05-29T13:48:41;95178.72;;;22.99;47.55
10652;BME280;5374;42.742;23.266;2023-05-29T13:51:28;95191.03;;;23.09;47.03
10652;BME280;5374;42.742;23.266;2023-05-29T13:54:16;95180.91;;;23.18;46.46
10652;BME280;5374;42.742;23.266;2023-05-29T13:57:04;95185.44;;;23.38;46.53
10652;BME280;5374;42.742;23.266;2023-05-29T13:59:52;95188.06;;;23.47;45.77
10652;BME280;5374;42.742;23.266;2023-05-29T14:02:39;95186.63;;;23.62;45.41
10652;BME280;5374;42.742;23.266;2023-05-29T14:05:28;95194.38;;;23.51;45.79
10652;BME280;5374;42.742;23.266;2023-05-29T14:08:15;95189.47;;;23.20;47.13
10652;BME280;5374;42.742;23.266;2023-05-29T14:11:03;95188.44;;;23.00;48.28
10652;BME280;5374;42.742;23.266;2023-05-29T14:13:50;95173.91;;;22.84;48.79
10652;BME280;5374;42.742;23.266;2023-05-29T14:16:37;95174.97;;;22.71;50.87
10652;BME280;5374;42.742;23.266;2023-05-29T14:19:24;95194.59;;;22.68;50.33
10652;BME280;5374;42.742;23.266;2023-05-29T14:22:13;95184.72;;;22.51;49.89
10652;BME280;5374;42.742;23.266;2023-05-29T14:25:01;95194.38;;;22.73;50.08
10652;BME280;5374;42.742;23.266;2023-05-29T14:27:49;95184.53;;;22.35;49.40
10652;BME280;5374;42.742;23.266;2023-05-29T14:30:37;95176.47;;;22.47;49.50
10652;BME280;5374;42.742;23.266;2023-05-29T14:33:26;95160.28;;;22.39;49.13
10652;BME280;5374;42.742;23.266;2023-05-29T14:36:13;95194.56;;;22.35;50.19
10652;BME280;5374;42.742;23.266;2023-05-29T14:39:02;95190.38;;;22.37;50.78
10652;BME280;5374;42.742;23.266;2023-05-29T14:41:49;95182.25;;;22.37;51.53
10652;BME280;5374;42.742;23.266;2023-05-29T14:44:36;95189.19;;;22.47;50.97
10652;BME280;5374;42.742;23.266;2023-05-29T14:47:24;95188.88;;;22.48;51.59